createdAt,value
2018-11-11T00:00:08.754Z,7.4
2018-11-11T00:00:39.302Z,7.4
2018-11-11T00:01:10.064Z,7.4
2018-11-11T00:01:40.714Z,7.4
2018-11-11T00:03:02.609Z,7.4
2018-11-11T00:04:01.450Z,7.4
2018-11-11T00:05:00.467Z,7.4
2018-11-11T00:05:59.693Z,7.4
2018-11-11T00:06:58.929Z,7.3
2018-11-11T00:07:58.280Z,7.3
2018-11-11T00:08:57.015Z,7.3
2018-11-11T00:09:56.257Z,7.3
2018-11-11T00:10:55.596Z,7.3
2018-11-11T00:11:25.653Z,7.3
2018-11-11T00:12:53.564Z,7.3
2018-11-11T00:13:52.402Z,7.3
2018-11-11T00:14:51.847Z,7.3
2018-11-11T00:15:50.688Z,7.3
2018-11-11T00:16:49.522Z,7.3
2018-11-11T00:17:48.904Z,7.3
2018-11-11T00:18:47.629Z,7.3
2018-11-11T00:19:46.974Z,7.3
2018-11-11T00:20:46.101Z,7.3
2018-11-11T00:21:45.985Z,7.3
2018-11-11T00:22:44.226Z,7.3
2018-11-11T00:23:43.685Z,7.3
2018-11-11T00:24:42.414Z,7.3
2018-11-11T00:25:41.649Z,7.4
2018-11-11T00:26:40.379Z,7.4
2018-11-11T00:27:39.712Z,7.4
2018-11-11T00:28:39.497Z,7.4
2018-11-11T00:29:37.439Z,7.4
2018-11-11T00:30:36.680Z,7.4
2018-11-11T00:31:07.220Z,7.4
2018-11-11T00:32:35.149Z,7.4
2018-11-11T00:33:34.488Z,7.4
2018-11-11T00:34:33.433Z,7.4
2018-11-11T00:35:32.265Z,7.4
2018-11-11T00:36:31.604Z,7.4
2018-11-11T00:37:30.434Z,7.4
2018-11-11T00:38:29.662Z,7.4
2018-11-11T00:39:28.811Z,7.4
2018-11-11T00:40:27.540Z,7.4
2018-11-11T00:41:26.987Z,7.4
2018-11-11T00:41:57.237Z,7.4
2018-11-11T00:42:27.497Z,7.4
2018-11-11T00:43:24.707Z,7.4
2018-11-11T00:44:23.938Z,7.4
2018-11-11T00:45:23.376Z,7.4
2018-11-11T00:46:22.103Z,7.4
2018-11-11T00:47:21.444Z,7.5
2018-11-11T00:49:19.776Z,7.5
2018-11-11T00:50:18.499Z,7.5
2018-11-11T00:51:17.839Z,7.5
2018-11-11T00:52:16.699Z,7.5
2018-11-11T00:53:16.039Z,7.5
2018-11-11T00:54:14.778Z,7.5
2018-11-11T00:55:14.120Z,7.6
2018-11-11T00:56:12.850Z,7.6
2018-11-11T00:57:12.177Z,7.6
2018-11-11T00:58:10.905Z,7.6
2018-11-11T00:59:10.249Z,7.6
2018-11-11T01:00:09.598Z,7.6
2018-11-11T01:01:08.433Z,7.6
2018-11-11T01:02:07.665Z,7.6
2018-11-11T01:03:06.631Z,7.6
2018-11-11T01:04:05.854Z,7.7
2018-11-11T01:05:04.584Z,7.7
2018-11-11T01:06:03.710Z,7.7
2018-11-11T01:07:02.733Z,7.7
2018-11-11T01:08:01.877Z,7.7
2018-11-11T01:09:01.230Z,7.6
2018-11-11T01:10:00.456Z,7.7
2018-11-11T01:10:59.192Z,7.7
2018-11-11T01:11:58.724Z,7.7
2018-11-11T01:12:57.354Z,7.7
2018-11-11T01:13:56.702Z,7.7
2018-11-11T01:14:55.323Z,7.7
2018-11-11T01:15:54.765Z,7.7
2018-11-11T01:16:53.615Z,7.7
2018-11-11T01:17:52.946Z,7.7
2018-11-11T01:18:51.893Z,7.7
2018-11-11T01:19:51.032Z,7.7
2018-11-11T01:20:50.479Z,7.7
2018-11-11T01:21:49.203Z,7.7
2018-11-11T01:22:48.323Z,7.7
2018-11-11T01:23:47.649Z,7.6
2018-11-11T01:24:46.385Z,7.7
2018-11-11T01:25:45.620Z,7.7
2018-11-11T01:26:44.962Z,7.7
2018-11-11T01:27:43.704Z,7.6
2018-11-11T01:28:43.051Z,7.6
2018-11-11T01:29:41.778Z,7.6
2018-11-11T01:30:41.217Z,7.6
2018-11-11T01:31:39.844Z,7.6
2018-11-11T01:32:39.292Z,7.7
2018-11-11T01:33:38.126Z,7.6
2018-11-11T01:34:37.462Z,7.6
2018-11-11T01:35:36.301Z,7.6
2018-11-11T01:36:06.561Z,7.6
2018-11-11T01:36:37.211Z,7.6
2018-11-11T01:37:34.644Z,7.6
2018-11-11T01:38:34.301Z,7.6
2018-11-11T01:39:32.530Z,7.6
2018-11-11T01:40:31.874Z,7.6
2018-11-11T01:41:30.815Z,7.6
2018-11-11T01:42:30.261Z,7.6
2018-11-11T01:43:29.093Z,7.6
2018-11-11T01:44:28.326Z,7.6
2018-11-11T01:45:27.269Z,7.6
2018-11-11T01:46:26.500Z,7.6
2018-11-11T01:46:57.248Z,7.6
2018-11-11T01:47:27.289Z,7.6
2018-11-11T01:48:24.627Z,7.6
2018-11-11T01:49:23.574Z,7.6
2018-11-11T01:51:21.788Z,7.6
2018-11-11T01:52:21.025Z,7.6
2018-11-11T01:53:19.746Z,7.6
2018-11-11T01:54:19.093Z,7.6
2018-11-11T01:55:18.037Z,7.6
2018-11-11T01:56:17.376Z,7.6
2018-11-11T01:57:16.113Z,7.6
2018-11-11T01:58:15.548Z,7.5
2018-11-11T01:59:14.275Z,7.5
2018-11-11T02:00:13.616Z,7.5
2018-11-11T02:01:12.946Z,7.6
2018-11-11T02:02:11.569Z,7.6
2018-11-11T02:03:10.592Z,7.6
2018-11-11T02:04:09.831Z,7.6
2018-11-11T02:05:09.058Z,7.6
2018-11-11T02:07:07.175Z,7.6
2018-11-11T02:08:06.004Z,7.7
2018-11-11T02:09:05.276Z,7.7
2018-11-11T02:10:04.620Z,7.7
2018-11-11T02:11:03.474Z,7.7
2018-11-11T02:12:02.813Z,7.7
2018-11-11T02:13:01.468Z,7.7
2018-11-11T02:14:00.822Z,7.7
2018-11-11T02:14:59.452Z,7.7
2018-11-11T02:15:59.199Z,7.7
2018-11-11T02:16:57.926Z,7.7
2018-11-11T02:17:28.591Z,7.7
2018-11-11T02:17:59.346Z,7.7
2018-11-11T02:18:29.391Z,7.7
2018-11-11T02:19:00.046Z,7.7
2018-11-11T02:19:55.253Z,7.7
2018-11-11T02:20:55.061Z,7.7
2018-11-11T02:21:53.404Z,7.7
2018-11-11T02:22:52.776Z,7.8
2018-11-11T02:23:51.545Z,7.8
2018-11-11T02:24:50.911Z,7.8
2018-11-11T02:25:49.538Z,7.8
2018-11-11T02:26:48.767Z,7.7
2018-11-11T02:27:47.998Z,7.8
2018-11-11T02:28:18.760Z,7.8
2018-11-11T02:28:48.802Z,7.7
2018-11-11T02:29:45.807Z,7.7
2018-11-11T02:30:45.043Z,7.7
2018-11-11T02:31:44.380Z,7.7
2018-11-11T02:32:43.232Z,7.7
2018-11-11T02:33:42.634Z,7.7
2018-11-11T02:34:41.269Z,7.7
2018-11-11T02:35:40.604Z,7.8
2018-11-11T02:36:39.736Z,7.7
2018-11-11T02:37:40.221Z,7.8
2018-11-11T02:38:38.295Z,7.8
2018-11-11T02:40:36.006Z,7.8
2018-11-11T02:41:35.249Z,7.8
2018-11-11T02:42:33.875Z,7.8
2018-11-11T02:43:33.233Z,7.8
2018-11-11T02:44:32.677Z,7.8
2018-11-11T02:45:31.526Z,7.8
2018-11-11T02:46:30.550Z,7.8
2018-11-11T02:47:30.009Z,7.8
2018-11-11T02:48:28.849Z,7.8
2018-11-11T02:49:27.679Z,7.8
2018-11-11T02:50:26.909Z,7.8
2018-11-11T02:51:26.134Z,7.8
2018-11-11T02:52:25.077Z,7.8
2018-11-11T02:53:24.518Z,7.8
2018-11-11T02:54:23.351Z,7.8
2018-11-11T02:54:53.894Z,7.8
2018-11-11T02:55:24.437Z,7.8
2018-11-11T02:56:21.369Z,7.8
2018-11-11T02:57:20.708Z,7.8
2018-11-11T02:58:19.438Z,7.8
2018-11-11T02:59:18.811Z,7.8
2018-11-11T03:00:17.697Z,7.8
2018-11-11T03:01:17.153Z,7.8
2018-11-11T03:03:14.887Z,7.8
2018-11-11T03:04:14.501Z,7.8
2018-11-11T03:06:12.341Z,7.8
2018-11-11T03:07:11.462Z,7.8
2018-11-11T03:08:10.710Z,7.8
2018-11-11T03:09:09.438Z,7.8
2018-11-11T03:10:08.903Z,7.8
2018-11-11T03:11:07.741Z,7.8
2018-11-11T03:12:07.190Z,7.8
2018-11-11T03:14:05.308Z,7.8
2018-11-11T03:15:04.208Z,7.8
2018-11-11T03:16:02.938Z,7.9
2018-11-11T03:17:01.851Z,7.8
2018-11-11T03:18:01.088Z,7.9
2018-11-11T03:19:00.465Z,7.9
2018-11-11T03:19:59.810Z,7.9
2018-11-11T03:20:58.652Z,7.9
2018-11-11T03:21:58.035Z,7.9
2018-11-11T03:22:56.870Z,7.9
2018-11-11T03:23:56.211Z,7.9
2018-11-11T03:24:55.074Z,7.9
2018-11-11T03:25:54.009Z,7.9
2018-11-11T03:26:24.267Z,7.9
2018-11-11T03:27:52.283Z,7.9
2018-11-11T03:29:50.312Z,7.9
2018-11-11T03:30:49.467Z,7.9
2018-11-11T03:31:48.961Z,7.9
2018-11-11T03:32:47.821Z,7.9
2018-11-11T03:33:46.834Z,7.9
2018-11-11T03:34:46.178Z,7.9
2018-11-11T03:35:45.010Z,7.9
2018-11-11T03:36:15.663Z,7.9
2018-11-11T03:36:45.708Z,7.9
2018-11-11T03:37:16.364Z,7.9
2018-11-11T03:39:41.361Z,7.9
2018-11-11T03:40:40.805Z,7.9
2018-11-11T03:41:39.629Z,8
2018-11-11T03:42:38.485Z,8
2018-11-11T03:43:37.721Z,7.9
2018-11-11T03:44:37.048Z,7.9
2018-11-11T03:45:35.782Z,8
2018-11-11T03:46:35.229Z,7.9
2018-11-11T03:47:34.055Z,8
2018-11-11T03:48:33.404Z,7.9
2018-11-11T03:49:32.257Z,7.9
2018-11-11T03:50:31.484Z,7.9
2018-11-11T03:51:30.444Z,7.9
2018-11-11T03:52:29.579Z,7.9
2018-11-11T03:53:28.298Z,7.9
2018-11-11T03:54:27.423Z,7.9
2018-11-11T03:55:26.868Z,7.9
2018-11-11T03:57:24.990Z,7.9
2018-11-11T03:58:24.116Z,7.9
2018-11-11T03:59:22.940Z,8
2018-11-11T04:00:22.180Z,7.9
2018-11-11T04:01:21.527Z,8
2018-11-11T04:02:20.250Z,8
2018-11-11T04:03:19.697Z,8
2018-11-11T04:04:18.651Z,8
2018-11-11T04:05:17.783Z,8
2018-11-11T04:06:16.627Z,8
2018-11-11T04:08:14.961Z,8
2018-11-11T04:08:45.022Z,8
2018-11-11T04:09:15.670Z,8.1
2018-11-11T04:10:13.668Z,8.1
2018-11-11T04:11:12.209Z,8.1
2018-11-11T04:12:11.439Z,8.1
2018-11-11T04:13:10.597Z,8.1
2018-11-11T04:14:09.425Z,8.1
2018-11-11T04:15:08.659Z,8.1
2018-11-11T04:16:07.879Z,8.1
2018-11-11T04:17:06.812Z,8.1
2018-11-11T04:18:06.046Z,8.1
2018-11-11T04:18:36.589Z,8.1
2018-11-11T04:19:07.147Z,8.1
2018-11-11T04:20:03.959Z,8.1
2018-11-11T04:21:03.242Z,8.1
2018-11-11T04:22:01.757Z,8.1
2018-11-11T04:23:01.618Z,8.1
2018-11-11T04:24:00.554Z,8.1
2018-11-11T04:24:59.385Z,8.1
2018-11-11T04:25:58.729Z,8.1
2018-11-11T04:26:58.077Z,8.1
2018-11-11T04:27:56.914Z,8.1
2018-11-11T04:28:56.250Z,8.1
2018-11-11T04:29:55.098Z,8.1
2018-11-11T04:31:53.308Z,8.1
2018-11-11T04:32:52.155Z,8.1
2018-11-11T04:33:51.599Z,8.1
2018-11-11T04:34:50.426Z,8.1
2018-11-11T04:35:49.555Z,8.1
2018-11-11T04:36:48.994Z,8.2
2018-11-11T04:37:47.612Z,8.2
2018-11-11T04:38:46.974Z,8.2
2018-11-11T04:39:45.714Z,8.2
2018-11-11T04:40:44.946Z,8.2
2018-11-11T04:41:44.178Z,8.2
2018-11-11T04:42:43.409Z,8.2
2018-11-11T04:43:42.246Z,8.2
2018-11-11T04:44:41.469Z,8.2
2018-11-11T04:45:40.589Z,8.2
2018-11-11T04:46:39.549Z,8.2
2018-11-11T04:47:38.908Z,8.2
2018-11-11T04:48:37.634Z,8.2
2018-11-11T04:49:36.989Z,8.2
2018-11-11T04:50:35.822Z,8.2
2018-11-11T04:51:35.259Z,8.2
2018-11-11T04:52:34.018Z,8.2
2018-11-11T04:53:33.417Z,8.2
2018-11-11T04:54:32.262Z,8.2
2018-11-11T04:55:31.749Z,8.2
2018-11-11T04:56:30.485Z,8.2
2018-11-11T04:57:29.924Z,8.2
2018-11-11T04:58:28.657Z,8.2
2018-11-11T04:59:27.995Z,8.2
2018-11-11T05:00:26.726Z,8.3
2018-11-11T05:01:26.630Z,8.3
2018-11-11T05:02:25.014Z,8.3
2018-11-11T05:02:55.770Z,8.3
2018-11-11T05:03:25.813Z,8.3
2018-11-11T05:04:23.278Z,8.3
2018-11-11T05:05:22.508Z,8.3
2018-11-11T05:06:21.360Z,8.3
2018-11-11T05:07:20.603Z,8.3
2018-11-11T05:08:20.061Z,8.3
2018-11-11T05:09:19.066Z,8.3
2018-11-11T05:10:17.800Z,8.3
2018-11-11T05:11:17.136Z,8.3
2018-11-11T05:12:15.874Z,8.3
2018-11-11T05:12:46.643Z,8.3
2018-11-11T05:13:16.946Z,8.3
2018-11-11T05:13:47.108Z,8.3
2018-11-11T05:15:13.765Z,8.3
2018-11-11T05:16:12.495Z,8.3
2018-11-11T05:17:11.941Z,8.3
2018-11-11T05:18:10.665Z,8.3
2018-11-11T05:19:10.138Z,8.3
2018-11-11T05:20:08.974Z,8.3
2018-11-11T05:21:07.814Z,8.3
2018-11-11T05:22:06.939Z,8.3
2018-11-11T05:23:06.279Z,8.3
2018-11-11T05:23:37.046Z,8.3
2018-11-11T05:24:07.089Z,8.3
2018-11-11T05:24:37.629Z,8.3
2018-11-11T05:26:03.592Z,8.3
2018-11-11T05:27:02.102Z,8.3
2018-11-11T05:28:01.728Z,8.3
2018-11-11T05:29:01.070Z,8.3
2018-11-11T05:29:59.909Z,8.3
2018-11-11T05:30:59.709Z,8.3
2018-11-11T05:31:58.371Z,8.3
2018-11-11T05:32:57.099Z,8.3
2018-11-11T05:33:56.324Z,8.3
2018-11-11T05:34:55.771Z,8.3
2018-11-11T05:35:54.487Z,8.4
2018-11-11T05:36:53.821Z,8.4
2018-11-11T05:37:52.658Z,8.4
2018-11-11T05:38:51.898Z,8.4
2018-11-11T05:39:50.725Z,8.4
2018-11-11T05:40:50.108Z,8.4
2018-11-11T05:41:48.833Z,8.4
2018-11-11T05:42:48.283Z,8.4
2018-11-11T05:43:18.820Z,8.4
2018-11-11T05:44:46.459Z,8.4
2018-11-11T05:45:45.387Z,8.4
2018-11-11T05:46:44.503Z,8.4
2018-11-11T05:47:43.642Z,8.4
2018-11-11T05:48:42.868Z,8.4
2018-11-11T05:49:41.810Z,8.3
2018-11-11T05:50:41.038Z,8.4
2018-11-11T05:51:40.157Z,8.3
2018-11-11T05:52:38.985Z,8.3
2018-11-11T05:53:09.742Z,8.3
2018-11-11T05:53:39.777Z,8.3
2018-11-11T05:54:10.416Z,8.3
2018-11-11T05:54:40.956Z,8.3
2018-11-11T05:55:11.489Z,8.3
2018-11-11T05:55:42.241Z,8.3
2018-11-11T05:56:12.892Z,8.3
2018-11-11T05:56:43.044Z,8.3
2018-11-11T05:57:13.696Z,8.3
2018-11-11T05:58:33.546Z,8.3
2018-11-11T05:59:32.661Z,8.3
2018-11-11T06:00:31.886Z,8.3
2018-11-11T06:01:31.331Z,8.3
2018-11-11T06:02:30.272Z,8.3
2018-11-11T06:03:29.122Z,8.3
2018-11-11T06:03:59.671Z,8.3
2018-11-11T06:04:30.429Z,8.3
2018-11-11T06:05:00.577Z,8.3
2018-11-11T06:05:31.361Z,8.3
2018-11-11T06:06:01.507Z,8.3
2018-11-11T06:06:32.170Z,8.3
2018-11-11T06:07:02.416Z,8.3
2018-11-11T06:08:24.905Z,8.3
2018-11-11T06:09:23.638Z,8.3
2018-11-11T06:10:22.881Z,8.3
2018-11-11T06:11:22.222Z,8.3
2018-11-11T06:12:21.347Z,8.3
2018-11-11T06:13:20.285Z,8.3
2018-11-11T06:14:19.726Z,8.3
2018-11-11T06:15:18.560Z,8.3
2018-11-11T06:16:17.283Z,8.3
2018-11-11T06:17:16.511Z,8.4
2018-11-11T06:18:15.954Z,8.4
2018-11-11T06:19:14.677Z,8.3
2018-11-11T06:20:14.016Z,8.4
2018-11-11T06:21:13.457Z,8.4
2018-11-11T06:22:12.384Z,8.4
2018-11-11T06:23:11.111Z,8.4
2018-11-11T06:24:10.451Z,8.4
2018-11-11T06:24:41.199Z,8.4
2018-11-11T06:25:11.349Z,8.4
2018-11-11T06:26:08.674Z,8.4
2018-11-11T06:27:07.512Z,8.4
2018-11-11T06:28:06.864Z,8.4
2018-11-11T06:29:05.809Z,8.4
2018-11-11T06:31:04.027Z,8.4
2018-11-11T06:32:03.253Z,8.4
2018-11-11T06:33:01.981Z,8.4
2018-11-11T06:34:01.768Z,8.4
2018-11-11T06:34:31.840Z,8.4
2018-11-11T06:35:02.390Z,8.4
2018-11-11T06:35:33.044Z,8.4
2018-11-11T06:36:03.370Z,8.4
2018-11-11T06:36:34.024Z,8.4
2018-11-11T06:37:58.017Z,8.5
2018-11-11T06:38:56.957Z,8.4
2018-11-11T06:39:56.199Z,8.4
2018-11-11T06:40:55.018Z,8.4
2018-11-11T06:41:54.247Z,8.4
2018-11-11T06:42:53.364Z,8.4
2018-11-11T06:44:51.584Z,8.5
2018-11-11T06:45:22.236Z,8.5
2018-11-11T06:45:52.882Z,8.5
2018-11-11T06:46:23.203Z,8.5
2018-11-11T06:47:48.743Z,8.5
2018-11-11T06:48:47.823Z,8.5
2018-11-11T06:51:45.310Z,8.5
2018-11-11T06:52:44.263Z,8.5
2018-11-11T06:53:43.382Z,8.5
2018-11-11T06:54:42.615Z,8.5
2018-11-11T06:55:41.336Z,8.6
2018-11-11T06:56:40.779Z,8.5
2018-11-11T06:57:40.051Z,8.6
2018-11-11T06:58:38.668Z,8.5
2018-11-11T06:59:37.999Z,8.6
2018-11-11T07:00:37.340Z,8.6
2018-11-11T07:01:36.057Z,8.6
2018-11-11T07:02:35.186Z,8.6
2018-11-11T07:03:34.516Z,8.6
2018-11-11T07:04:33.451Z,8.6
2018-11-11T07:05:32.790Z,8.6
2018-11-11T07:06:31.508Z,8.6
2018-11-11T07:07:31.469Z,8.6
2018-11-11T07:08:29.912Z,8.6
2018-11-11T07:09:29.153Z,8.6
2018-11-11T07:10:27.982Z,8.6
2018-11-11T07:11:27.216Z,8.6
2018-11-11T07:12:26.544Z,8.5
2018-11-11T07:13:25.256Z,8.5
2018-11-11T07:15:23.470Z,8.5
2018-11-11T07:16:22.696Z,8.5
2018-11-11T07:17:21.923Z,8.6
2018-11-11T07:18:21.365Z,8.6
2018-11-11T07:19:20.295Z,8.6
2018-11-11T07:20:19.029Z,8.6
2018-11-11T07:21:18.371Z,8.6
2018-11-11T07:22:17.590Z,8.6
2018-11-11T07:23:16.430Z,8.6
2018-11-11T07:25:14.761Z,8.6
2018-11-11T07:26:13.787Z,8.6
2018-11-11T07:27:13.024Z,8.6
2018-11-11T07:28:11.863Z,8.6
2018-11-11T07:30:09.973Z,8.6
2018-11-11T07:32:08.370Z,8.7
2018-11-11T07:33:07.813Z,8.7
2018-11-11T07:34:06.534Z,8.7
2018-11-11T07:35:05.764Z,8.7
2018-11-11T07:36:05.529Z,8.8
2018-11-11T07:37:04.207Z,8.8
2018-11-11T07:38:02.716Z,8.8
2018-11-11T07:39:02.053Z,8.8
2018-11-11T07:40:01.383Z,8.8
2018-11-11T07:41:00.420Z,8.8
2018-11-11T07:41:31.080Z,8.8
2018-11-11T07:42:01.741Z,8.8
2018-11-11T07:42:32.816Z,8.8
2018-11-11T07:43:02.609Z,8.8
2018-11-11T07:43:57.714Z,8.9
2018-11-11T07:44:57.157Z,8.8
2018-11-11T07:45:56.089Z,8.9
2018-11-11T07:46:54.922Z,8.9
2018-11-11T07:47:54.836Z,8.9
2018-11-11T07:48:53.490Z,8.9
2018-11-11T07:49:52.212Z,8.9
2018-11-11T07:50:51.534Z,8.9
2018-11-11T07:51:51.192Z,8.9
2018-11-11T07:52:21.285Z,8.9
2018-11-11T07:52:51.541Z,8.9
2018-11-11T07:53:48.867Z,8.9
2018-11-11T07:54:48.298Z,8.9
2018-11-11T07:55:47.185Z,8.9
2018-11-11T07:56:45.923Z,8.9
2018-11-11T07:57:45.378Z,9
2018-11-11T07:58:44.241Z,9
2018-11-11T07:59:43.578Z,9
2018-11-11T08:00:42.808Z,9
2018-11-11T08:01:42.170Z,9
2018-11-11T08:02:41.076Z,9
2018-11-11T08:03:39.920Z,9
2018-11-11T08:04:39.263Z,9
2018-11-11T08:06:37.367Z,9
2018-11-11T08:07:36.095Z,9
2018-11-11T08:08:35.329Z,9.1
2018-11-11T08:09:34.568Z,9
2018-11-11T08:11:32.683Z,9.1
2018-11-11T08:12:03.019Z,9.1
2018-11-11T08:12:33.789Z,9.1
2018-11-11T08:13:03.815Z,9.1
2018-11-11T08:14:30.441Z,9.1
2018-11-11T08:15:29.370Z,9.1
2018-11-11T08:17:27.690Z,9.1
2018-11-11T08:18:26.961Z,9.2
2018-11-11T08:19:25.582Z,9.2
2018-11-11T08:20:24.915Z,9.2
2018-11-11T08:21:24.141Z,9.2
2018-11-11T08:22:23.476Z,9.2
2018-11-11T08:22:53.510Z,9.2
2018-11-11T08:23:24.152Z,9.2
2018-11-11T08:23:54.693Z,9.2
2018-11-11T08:24:25.135Z,9.2
2018-11-11T08:24:55.685Z,9.2
2018-11-11T08:25:26.978Z,9.2
2018-11-11T08:26:19.847Z,9.3
2018-11-11T08:27:18.784Z,9.3
2018-11-11T08:28:17.736Z,9.3
2018-11-11T08:29:17.066Z,9.3
2018-11-11T08:30:15.791Z,9.3
2018-11-11T08:31:14.804Z,9.3
2018-11-11T08:32:14.198Z,9.4
2018-11-11T08:33:13.386Z,9.4
2018-11-11T08:33:43.935Z,9.4
2018-11-11T08:35:11.448Z,9.4
2018-11-11T08:36:10.780Z,9.4
2018-11-11T08:37:10.007Z,9.4
2018-11-11T08:38:08.729Z,9.4
2018-11-11T08:39:08.167Z,9.5
2018-11-11T08:40:07.006Z,9.5
2018-11-11T08:41:06.256Z,9.5
2018-11-11T08:42:05.605Z,9.5
2018-11-11T08:43:04.555Z,9.6
2018-11-11T08:44:03.880Z,9.6
2018-11-11T08:45:02.740Z,9.7
2018-11-11T08:46:01.974Z,9.7
2018-11-11T08:47:01.211Z,9.8
2018-11-11T08:48:00.390Z,9.9
2018-11-11T08:48:59.223Z,9.9
2018-11-11T08:49:58.561Z,10
2018-11-11T08:50:57.383Z,10
2018-11-11T08:51:56.829Z,10.1
2018-11-11T08:52:55.650Z,10.1
2018-11-11T08:53:55.112Z,10.2
2018-11-11T08:54:53.943Z,10.2
2018-11-11T08:55:52.953Z,10.2
2018-11-11T08:56:51.961Z,10.2
2018-11-11T08:57:51.631Z,10.2
2018-11-11T08:58:50.325Z,10.3
2018-11-11T08:59:49.658Z,10.3
2018-11-11T09:00:48.985Z,10.3
2018-11-11T09:01:47.726Z,10.3
2018-11-11T09:02:47.185Z,10.3
2018-11-11T09:03:46.412Z,10.3
2018-11-11T09:04:45.610Z,10.4
2018-11-11T09:05:15.646Z,10.4
2018-11-11T09:06:43.676Z,10.4
2018-11-11T09:07:43.022Z,10.4
2018-11-11T09:08:41.757Z,10.4
2018-11-11T09:09:41.092Z,10.4
2018-11-11T09:10:40.320Z,10.5
2018-11-11T09:11:39.272Z,10.5
2018-11-11T09:12:38.279Z,10.5
2018-11-11T09:13:37.505Z,10.5
2018-11-11T09:14:36.410Z,10.5
2018-11-11T09:15:35.742Z,10.5
2018-11-11T09:16:35.090Z,10.5
2018-11-11T09:17:34.842Z,10.6
2018-11-11T09:18:33.136Z,10.6
2018-11-11T09:19:32.359Z,10.6
2018-11-11T09:20:31.192Z,10.6
2018-11-11T09:21:31.359Z,10.6
2018-11-11T09:22:29.841Z,10.7
2018-11-11T09:23:28.866Z,10.7
2018-11-11T09:24:27.823Z,10.7
2018-11-11T09:25:27.444Z,10.7
2018-11-11T09:26:26.270Z,10.7
2018-11-11T09:27:24.989Z,10.6
2018-11-11T09:28:24.110Z,10.6
2018-11-11T09:29:23.875Z,10.6
2018-11-11T09:30:23.748Z,10.6
2018-11-11T09:31:21.759Z,10.6
2018-11-11T09:32:21.099Z,10.6
2018-11-11T09:33:19.827Z,10.5
2018-11-11T09:34:19.557Z,10.6
2018-11-11T09:35:19.161Z,10.6
2018-11-11T09:36:17.504Z,10.6
2018-11-11T09:37:16.949Z,10.7
2018-11-11T09:38:15.933Z,10.7
2018-11-11T09:39:16.329Z,10.7
2018-11-11T09:40:14.135Z,10.7
2018-11-11T09:41:13.365Z,10.7
2018-11-11T09:42:12.205Z,10.7
2018-11-11T09:42:43.300Z,10.7
2018-11-11T09:43:13.278Z,10.7
2018-11-11T09:43:43.535Z,10.7
2018-11-11T09:44:13.569Z,10.7
2018-11-11T09:45:09.999Z,10.7
2018-11-11T09:46:08.837Z,10.7
2018-11-11T09:47:08.081Z,10.7
2018-11-11T09:48:07.415Z,10.7
2018-11-11T09:49:06.139Z,10.7
2018-11-11T09:50:05.152Z,10.7
2018-11-11T09:51:04.987Z,10.7
2018-11-11T09:52:03.722Z,10.7
2018-11-11T09:54:02.122Z,10.7
2018-11-11T09:55:01.424Z,10.7
2018-11-11T09:56:00.260Z,10.7
2018-11-11T09:56:59.599Z,10.7
2018-11-11T09:57:58.833Z,10.7
2018-11-11T09:58:57.770Z,10.7
2018-11-11T09:59:58.249Z,10.7
2018-11-11T10:00:56.065Z,10.7
2018-11-11T10:01:55.290Z,10.7
2018-11-11T10:02:54.515Z,10.7
2018-11-11T10:03:53.137Z,10.7
2018-11-11T10:04:52.772Z,10.7
2018-11-11T10:05:51.784Z,10.7
2018-11-11T10:06:51.808Z,10.7
2018-11-11T10:07:50.047Z,10.7
2018-11-11T10:08:49.336Z,10.7
2018-11-11T10:09:47.953Z,10.7
2018-11-11T10:10:47.283Z,10.6
2018-11-11T10:11:46.728Z,10.6
2018-11-11T10:12:46.336Z,10.6
2018-11-11T10:13:45.196Z,10.6
2018-11-11T10:14:15.845Z,10.6
2018-11-11T10:14:46.391Z,10.5
2018-11-11T10:15:16.831Z,10.5
2018-11-11T10:16:42.338Z,10.5
2018-11-11T10:17:41.679Z,10.4
2018-11-11T10:18:40.400Z,10.4
2018-11-11T10:19:39.633Z,10.3
2018-11-11T10:20:39.209Z,10.3
2018-11-11T10:21:38.007Z,10.3
2018-11-11T10:22:37.336Z,10.2
2018-11-11T10:23:36.166Z,10.2
2018-11-11T10:24:35.637Z,10.1
2018-11-11T10:25:05.671Z,10.1
2018-11-11T10:25:36.322Z,10.1
2018-11-11T10:26:34.146Z,10.1
2018-11-11T10:27:33.291Z,10
2018-11-11T10:28:31.805Z,10
2018-11-11T10:30:30.365Z,10
2018-11-11T10:31:29.591Z,10
2018-11-11T10:32:28.539Z,10
2018-11-11T10:33:28.403Z,9.9
2018-11-11T10:34:26.528Z,9.9
2018-11-11T10:35:25.756Z,9.9
2018-11-11T10:36:25.092Z,9.9
2018-11-11T10:37:25.080Z,9.9
2018-11-11T10:38:23.369Z,9.9
2018-11-11T10:39:23.332Z,9.9
2018-11-11T10:40:21.812Z,9.9
2018-11-11T10:44:18.701Z,9.8
2018-11-11T10:45:17.412Z,9.9
2018-11-11T10:46:16.640Z,9.9
2018-11-11T10:47:15.759Z,9.9
2018-11-11T10:48:15.204Z,9.9
2018-11-11T10:49:13.924Z,9.9
2018-11-11T10:50:13.372Z,9.9
2018-11-11T10:51:12.200Z,9.9
2018-11-11T10:52:11.638Z,9.9
2018-11-11T10:53:10.472Z,9.9
2018-11-11T10:54:10.203Z,9.9
2018-11-11T10:55:08.821Z,9.9
2018-11-11T10:57:06.933Z,9.9
2018-11-11T10:58:06.059Z,10
2018-11-11T10:59:05.389Z,10
2018-11-11T11:00:04.917Z,10
2018-11-11T11:01:03.769Z,10.1
2018-11-11T11:02:02.405Z,10.1
2018-11-11T11:03:02.037Z,10.1
2018-11-11T11:04:01.161Z,10.2
2018-11-11T11:05:00.383Z,10.2
2018-11-11T11:05:59.744Z,10.2
2018-11-11T11:06:58.397Z,10.2
2018-11-11T11:07:57.529Z,10.2
2018-11-11T11:08:56.544Z,10.2
2018-11-11T11:09:55.977Z,10.2
2018-11-11T11:11:54.336Z,10.2
2018-11-11T11:12:53.112Z,10.3
2018-11-11T11:14:51.767Z,10.3
2018-11-11T11:15:50.605Z,10.3
2018-11-11T11:16:49.822Z,10.3
2018-11-11T11:17:49.058Z,10.3
2018-11-11T11:18:48.499Z,10.3
2018-11-11T11:19:47.220Z,10.4
2018-11-11T11:20:17.659Z,10.4
2018-11-11T11:20:48.314Z,10.4
2018-11-11T11:21:45.533Z,10.4
2018-11-11T11:22:44.962Z,10.4
2018-11-11T11:23:43.906Z,10.5
2018-11-11T11:24:43.346Z,10.5
2018-11-11T11:25:42.880Z,10.5
2018-11-11T11:26:41.378Z,10.5
2018-11-11T11:27:40.210Z,10.6
2018-11-11T11:28:39.580Z,10.6
2018-11-11T11:29:39.021Z,10.6
2018-11-11T11:30:37.533Z,10.6
2018-11-11T11:31:07.982Z,10.6
2018-11-11T11:31:39.335Z,10.6
2018-11-11T11:32:36.150Z,10.7
2018-11-11T11:33:35.147Z,10.7
2018-11-11T11:34:34.376Z,10.7
2018-11-11T11:35:34.318Z,10.7
2018-11-11T11:36:32.509Z,10.8
2018-11-11T11:37:31.840Z,10.8
2018-11-11T11:38:31.182Z,10.9
2018-11-11T11:40:29.291Z,11
2018-11-11T11:41:29.302Z,11
2018-11-11T11:42:27.592Z,11
2018-11-11T11:44:25.591Z,11.1
2018-11-11T11:45:24.706Z,11.1
2018-11-11T11:47:24.095Z,11.3
2018-11-11T11:48:22.391Z,11.3
2018-11-11T11:49:21.621Z,11.4
2018-11-11T11:49:52.603Z,11.4
2018-11-11T11:51:20.127Z,11.5
2018-11-11T11:51:50.976Z,11.5
2018-11-11T11:52:21.673Z,11.5
2018-11-11T11:53:18.473Z,11.6
2018-11-11T11:54:17.310Z,11.6
2018-11-11T11:55:16.751Z,11.7
2018-11-11T11:56:15.148Z,11.7
2018-11-11T11:57:14.883Z,11.8
2018-11-11T11:58:14.802Z,11.8
2018-11-11T11:59:13.018Z,11.8
2018-11-11T11:59:43.443Z,11.8
2018-11-11T12:02:10.987Z,11.9
2018-11-11T12:02:40.859Z,11.9
2018-11-11T12:03:11.110Z,11.9
2018-11-11T12:03:41.042Z,11.9
2018-11-11T12:04:11.795Z,12
2018-11-11T12:05:08.008Z,12
2018-11-11T12:06:07.245Z,12.1
2018-11-11T12:07:06.695Z,12.1
2018-11-11T12:08:05.643Z,12.1
2018-11-11T12:09:05.240Z,12.1
2018-11-11T12:10:03.375Z,12.1
2018-11-11T12:11:02.512Z,12.2
2018-11-11T12:12:02.265Z,12.2
2018-11-11T12:12:32.797Z,12.2
2018-11-11T12:13:03.374Z,12.2
2018-11-11T12:13:34.038Z,12.2
2018-11-11T12:14:04.585Z,12.2
2018-11-11T12:14:35.133Z,12.2
2018-11-11T12:15:58.520Z,12.2
2018-11-11T12:16:58.174Z,12.3
2018-11-11T12:17:56.795Z,12.4
2018-11-11T12:18:56.128Z,12.5
2018-11-11T12:19:55.634Z,12.5
2018-11-11T12:20:54.573Z,12.6
2018-11-11T12:21:53.894Z,12.7
2018-11-11T12:22:52.830Z,12.7
2018-11-11T12:23:52.173Z,12.8
2018-11-11T12:24:50.899Z,12.8
2018-11-11T12:25:50.012Z,12.8
2018-11-11T12:26:49.260Z,12.8
2018-11-11T12:27:48.607Z,12.8
2018-11-11T12:28:47.615Z,12.9
2018-11-11T12:29:46.944Z,12.9
2018-11-11T12:30:46.539Z,13
2018-11-11T12:31:16.766Z,13
2018-11-11T12:32:44.277Z,13.1
2018-11-11T12:33:43.513Z,13.1
2018-11-11T12:34:42.751Z,13.2
2018-11-11T12:35:42.207Z,13.3
2018-11-11T12:36:41.143Z,13.3
2018-11-11T12:37:40.367Z,13.3
2018-11-11T12:38:39.804Z,13.3
2018-11-11T12:39:39.453Z,13.3
2018-11-11T12:40:37.983Z,13.2
2018-11-11T12:41:37.218Z,13.2
2018-11-11T12:42:07.821Z,13.2
2018-11-11T12:42:38.252Z,13.2
2018-11-11T12:43:08.923Z,13.2
2018-11-11T12:43:39.568Z,13.2
2018-11-11T12:44:09.389Z,13.2
2018-11-11T12:45:33.888Z,13.3
2018-11-11T12:46:33.032Z,13.3
2018-11-11T12:47:32.472Z,13.3
2018-11-11T12:48:31.302Z,13.3
2018-11-11T12:49:30.636Z,13.3
2018-11-11T12:50:31.312Z,13.3
2018-11-11T12:51:28.931Z,13.4
2018-11-11T12:52:27.657Z,13.4
2018-11-11T12:53:26.880Z,13.4
2018-11-11T12:53:57.528Z,13.4
2018-11-11T12:55:25.902Z,13.4
2018-11-11T12:56:24.813Z,13.5
2018-11-11T12:58:22.921Z,13.5
2018-11-11T12:59:22.364Z,13.5
2018-11-11T13:00:21.478Z,13.6
2018-11-11T13:01:20.601Z,13.5
2018-11-11T13:02:19.930Z,13.5
2018-11-11T13:03:18.870Z,13.5
2018-11-11T13:04:18.093Z,13.6
2018-11-11T13:05:17.429Z,13.6
2018-11-11T13:06:16.866Z,13.6
2018-11-11T13:07:15.694Z,13.6
2018-11-11T13:08:14.707Z,13.6
2018-11-11T13:09:14.043Z,13.6
2018-11-11T13:10:13.495Z,13.7
2018-11-11T13:11:12.917Z,13.6
2018-11-11T13:12:12.567Z,13.7
2018-11-11T13:14:09.963Z,13.8
2018-11-11T13:14:40.216Z,13.8
2018-11-11T13:15:10.476Z,13.8
2018-11-11T13:16:08.097Z,13.7
2018-11-11T13:17:07.430Z,13.7
2018-11-11T13:18:06.652Z,13.7
2018-11-11T13:19:05.774Z,13.8